createdAt,value
2023-04-25T00:00:08.943Z,1.27
2023-04-25T00:02:49.479Z,1.10
2023-04-25T00:05:33.416Z,1.23
2023-04-25T00:08:13.626Z,0.90
2023-04-25T00:10:51.557Z,0.82
2023-04-25T00:13:36.632Z,1.02
2023-04-25T00:16:19.806Z,0.80
2023-04-25T00:19:01.759Z,1.00
2023-04-25T00:21:52.157Z,1.00
2023-04-25T00:24:27.395Z,0.95
2023-04-25T00:27:06.921Z,0.80
2023-04-25T00:29:52.480Z,0.75
2023-04-25T00:32:33.618Z,0.90
2023-04-25T00:35:13.169Z,0.90
2023-04-25T00:37:56.641Z,0.80
2023-04-25T00:40:40.837Z,0.77
2023-04-25T00:43:16.556Z,0.90
2023-04-25T00:45:59.329Z,0.95
2023-04-25T00:48:44.016Z,0.80
2023-04-25T00:51:23.150Z,0.60
2023-04-25T00:54:06.420Z,0.77
2023-04-25T00:56:45.284Z,0.70
2023-04-25T00:59:26.540Z,0.90
2023-04-25T01:02:14.970Z,0.90
2023-04-25T01:04:49.775Z,0.80
2023-04-25T01:07:31.124Z,0.82
2023-04-25T01:10:30.437Z,0.75
2023-04-25T01:13:05.355Z,0.80
2023-04-25T01:15:45.029Z,1.05
2023-04-25T01:18:36.311Z,1.45
2023-04-25T01:21:26.205Z,1.20
2023-04-25T01:24:17.082Z,0.95
2023-04-25T01:26:58.143Z,0.90
2023-04-25T01:29:53.553Z,1.00
2023-04-25T01:32:33.672Z,1.23
2023-04-25T01:35:15.570Z,1.10
2023-04-25T01:37:59.812Z,1.13
2023-04-25T01:40:39.414Z,1.33
2023-04-25T01:43:45.114Z,1.70
2023-04-25T01:49:18.728Z,1.60
2023-04-25T01:51:57.141Z,2.00
2023-04-25T01:54:52.842Z,1.98
2023-04-25T01:57:47.720Z,2.50
2023-04-25T02:00:36.514Z,2.30
2023-04-25T02:03:18.728Z,2.40
2023-04-25T02:06:04.095Z,2.57
2023-04-25T02:08:45.065Z,2.28
2023-04-25T02:11:20.444Z,2.78
2023-04-25T02:14:33.284Z,2.40
2023-04-25T02:17:27.464Z,2.50
2023-04-25T02:20:13.527Z,2.72
2023-04-25T02:22:58.422Z,2.33
2023-04-25T02:31:52.996Z,2.85
2023-04-25T02:34:51.486Z,2.70
2023-04-25T02:37:26.879Z,3.22
2023-04-25T02:40:22.689Z,3.05
2023-04-25T02:46:06.032Z,3.20
2023-04-25T02:48:56.087Z,2.65
2023-04-25T02:51:34.165Z,3.47
2023-04-25T02:57:17.547Z,3.50
2023-04-25T02:59:57.421Z,3.33
2023-04-25T03:02:46.826Z,3.22
2023-04-25T03:05:40.592Z,3.97
2023-04-25T03:08:19.481Z,3.13
2023-04-25T03:11:05.164Z,3.83
2023-04-25T03:13:50.026Z,3.95
2023-04-25T03:22:31.235Z,3.77
2023-04-25T03:25:20.641Z,3.97
2023-04-25T03:28:04.576Z,3.67
2023-04-25T03:30:47.888Z,3.87
2023-04-25T03:33:34.887Z,3.95
2023-04-25T03:38:55.036Z,3.95
2023-04-25T03:41:50.206Z,4.00
2023-04-25T03:47:22.852Z,3.25
2023-04-25T03:50:14.222Z,3.75
2023-04-25T03:52:57.917Z,3.53
2023-04-25T04:05:05.190Z,4.07
2023-04-25T04:10:46.716Z,4.57
2023-04-25T04:19:26.908Z,4.63
2023-04-25T04:25:22.359Z,5.47
2023-04-25T04:28:42.649Z,4.55
2023-04-25T04:31:44.426Z,5.20
2023-04-25T04:34:25.342Z,4.70
2023-04-25T04:37:25.296Z,4.80
2023-04-25T04:40:07.459Z,5.32
2023-04-25T04:43:01.176Z,5.25
2023-04-25T04:46:01.407Z,4.65
2023-04-25T04:48:49.418Z,5.20
2023-04-25T04:51:59.629Z,5.00
2023-04-25T04:54:48.849Z,5.00
2023-04-25T04:57:34.289Z,5.65
2023-04-25T05:00:48.005Z,4.88
2023-04-25T05:03:55.617Z,4.60
2023-04-25T05:07:00.712Z,5.20
2023-04-25T05:09:52.839Z,5.25
2023-04-25T05:12:32.249Z,4.75
2023-04-25T05:18:51.675Z,4.78
2023-04-25T05:21:45.281Z,4.85
2023-04-25T05:24:45.080Z,4.78
2023-04-25T05:28:00.584Z,4.95
2023-04-25T05:30:51.797Z,4.90
2023-04-25T05:33:36.382Z,4.38
2023-04-25T05:36:15.584Z,4.97
2023-04-25T05:39:15.333Z,4.63
2023-04-25T05:45:12.619Z,4.68
2023-04-25T05:48:16.071Z,5.43
2023-04-25T05:51:18.707Z,4.73
2023-04-25T05:54:29.904Z,4.70
2023-04-25T05:57:13.208Z,4.70
2023-04-25T05:59:58.554Z,4.20
2023-04-25T06:02:53.030Z,4.47
2023-04-25T06:05:30.549Z,4.07
2023-04-25T06:08:11.340Z,4.80
2023-04-25T06:10:50.594Z,4.50
2023-04-25T06:13:35.662Z,4.27
2023-04-25T06:16:18.045Z,4.60
2023-04-25T06:19:01.947Z,4.00
2023-04-25T06:21:36.986Z,4.97
2023-04-25T06:24:17.544Z,3.70
2023-04-25T06:26:55.531Z,4.70
2023-04-25T06:29:38.280Z,4.68
2023-04-25T06:32:20.186Z,4.90
2023-04-25T06:34:59.963Z,4.50
2023-04-25T06:37:43.789Z,4.10
2023-04-25T06:40:25.910Z,3.50
2023-04-25T06:43:04.534Z,4.05
2023-04-25T06:46:00.061Z,4.20
2023-04-25T06:48:44.807Z,3.75
2023-04-25T06:51:24.319Z,3.97
2023-04-25T06:54:05.673Z,3.80
2023-04-25T06:56:53.401Z,4.10
2023-04-25T06:59:31.487Z,3.97
2023-04-25T07:02:16.747Z,3.92
2023-04-25T07:04:57.937Z,4.07
2023-04-25T07:07:39.398Z,3.10
2023-04-25T07:10:23.654Z,3.30
2023-04-25T07:13:00.650Z,3.03
2023-04-25T07:15:43.710Z,3.30
2023-04-25T07:18:28.527Z,2.80
2023-04-25T07:21:20.754Z,2.75
2023-04-25T07:24:05.115Z,3.50
2023-04-25T07:26:55.648Z,3.07
2023-04-25T07:29:39.373Z,2.20
2023-04-25T07:32:22.391Z,2.40
2023-04-25T07:35:13.363Z,3.00
2023-04-25T07:37:59.207Z,3.37
2023-04-25T07:40:38.318Z,3.60
2023-04-25T07:43:31.080Z,2.90
2023-04-25T07:46:10.000Z,4.10
2023-04-25T07:48:50.563Z,3.15
2023-04-25T07:51:36.340Z,2.92
2023-04-25T07:54:20.262Z,3.60
2023-04-25T07:57:06.773Z,3.10
2023-04-25T07:59:55.602Z,2.97
2023-04-25T08:02:33.549Z,3.42
2023-04-25T08:05:17.777Z,3.30
2023-04-25T08:08:01.088Z,4.05
2023-04-25T08:10:41.973Z,4.60
2023-04-25T08:13:22.455Z,4.60
2023-04-25T08:15:56.580Z,4.83
2023-04-25T08:18:35.437Z,4.63
2023-04-25T08:21:13.966Z,5.60
2023-04-25T08:23:59.903Z,5.05
2023-04-25T08:26:48.011Z,4.63
2023-04-25T08:29:31.191Z,5.53
2023-04-25T08:32:08.668Z,5.40
2023-04-25T08:34:54.001Z,4.25
2023-04-25T08:37:35.269Z,4.60
2023-04-25T08:40:19.690Z,5.15
2023-04-25T08:43:14.223Z,4.55
2023-04-25T08:45:51.275Z,5.50
2023-04-25T08:48:57.876Z,5.00
2023-04-25T08:51:37.437Z,5.00
2023-04-25T08:54:34.219Z,4.97
2023-04-25T08:57:13.494Z,5.03
2023-04-25T09:00:10.175Z,4.97
2023-04-25T09:02:51.497Z,5.50
2023-04-25T09:05:26.461Z,6.00
2023-04-25T09:08:04.627Z,5.30
2023-04-25T09:10:47.874Z,5.20
2023-04-25T09:13:55.864Z,5.00
2023-04-25T09:16:39.685Z,5.85
2023-04-25T09:19:46.816Z,5.22
2023-04-25T09:22:48.536Z,4.68
2023-04-25T09:25:28.568Z,5.20
2023-04-25T09:28:04.755Z,5.10
2023-04-25T09:30:44.559Z,5.35
2023-04-25T09:33:36.388Z,5.30
2023-04-25T09:36:18.567Z,5.50
2023-04-25T09:39:15.221Z,4.50
2023-04-25T09:41:59.408Z,4.60
2023-04-25T09:44:35.238Z,4.40
2023-04-25T09:47:14.293Z,3.87
2023-04-25T09:49:55.553Z,3.72
2023-04-25T09:52:35.044Z,3.53
2023-04-25T09:55:23.226Z,4.47
2023-04-25T09:58:04.857Z,3.95
2023-04-25T10:00:48.512Z,4.45
2023-04-25T10:03:43.492Z,3.70
2023-04-25T10:12:53.188Z,3.70
2023-04-25T10:18:38.756Z,3.95
2023-04-25T10:28:40.654Z,3.90
2023-04-25T10:31:17.102Z,4.07
2023-04-25T10:33:57.948Z,3.40
2023-04-25T10:36:38.551Z,3.72
2023-04-25T10:39:17.918Z,2.47
2023-04-25T10:42:15.368Z,2.60
2023-04-25T10:47:51.276Z,3.35
2023-04-25T10:50:33.138Z,2.80
2023-04-25T10:53:26.363Z,3.00
2023-04-25T10:56:14.536Z,2.55
2023-04-25T10:58:54.633Z,3.17
2023-04-25T11:01:36.920Z,2.63
2023-04-25T11:04:31.475Z,2.97
2023-04-25T11:07:15.060Z,2.92
2023-04-25T11:10:01.041Z,3.27
2023-04-25T11:12:51.076Z,3.45
2023-04-25T11:15:28.180Z,3.30
2023-04-25T11:18:18.043Z,1.50
2023-04-25T11:21:02.301Z,1.30
2023-04-25T11:23:47.852Z,1.30
2023-04-25T11:26:42.110Z,1.27
2023-04-25T11:29:25.081Z,1.17
2023-04-25T11:32:06.734Z,1.50
2023-04-25T11:34:56.716Z,1.10
2023-04-25T11:37:49.974Z,1.08
2023-04-25T11:40:29.598Z,0.90
2023-04-25T11:53:20.919Z,1.05
2023-04-25T11:56:06.883Z,0.90
2023-04-25T12:02:22.346Z,0.80
2023-04-25T12:05:07.528Z,4.30
2023-04-25T12:07:56.923Z,1.10
2023-04-25T12:10:40.368Z,0.90
2023-04-25T12:13:11.639Z,1.00
2023-04-25T12:15:49.319Z,1.00
2023-04-25T12:18:27.567Z,1.35
2023-04-25T12:21:08.864Z,0.90
2023-04-25T12:23:52.376Z,0.93
2023-04-25T12:26:49.874Z,1.13
2023-04-25T12:32:25.914Z,1.00
2023-04-25T12:35:05.278Z,1.30
2023-04-25T12:37:41.035Z,1.30
2023-04-25T12:40:24.085Z,1.13
2023-04-25T12:42:59.273Z,1.00
2023-04-25T12:45:48.227Z,1.23
2023-04-25T12:48:24.916Z,1.08
2023-04-25T12:51:03.633Z,1.30
2023-04-25T12:53:42.189Z,1.25
2023-04-25T12:56:18.791Z,1.00
2023-04-25T12:58:59.717Z,1.00
2023-04-25T13:01:49.328Z,0.70
2023-04-25T13:04:29.312Z,1.00
2023-04-25T13:07:13.694Z,1.50
2023-04-25T13:09:55.864Z,1.23
2023-04-25T13:12:35.491Z,1.20
2023-04-25T13:15:14.333Z,0.85
2023-04-25T13:18:02.193Z,1.33
2023-04-25T13:20:45.350Z,1.55
2023-04-25T13:23:24.037Z,1.10
2023-04-25T13:26:05.064Z,1.30
2023-04-25T13:28:45.048Z,1.20
2023-04-25T13:31:23.162Z,1.00
2023-04-25T13:34:07.608Z,1.40
2023-04-25T13:36:51.594Z,1.20
2023-04-25T13:39:31.669Z,1.38
2023-04-25T13:42:05.297Z,1.30
2023-04-25T13:44:43.198Z,1.20
2023-04-25T13:47:21.774Z,1.40
2023-04-25T13:50:23.124Z,1.02
2023-04-25T13:53:03.520Z,1.10
2023-04-25T13:55:49.471Z,0.95
2023-04-25T13:58:28.411Z,1.10
2023-04-25T14:01:18.740Z,1.05
2023-04-25T14:03:57.990Z,1.00
2023-04-25T14:06:38.796Z,1.10
2023-04-25T14:09:18.348Z,0.95
2023-04-25T14:11:55.636Z,1.00
2023-04-25T14:14:36.110Z,0.93
2023-04-25T14:17:17.029Z,0.95
2023-04-25T14:19:58.724Z,1.20
2023-04-25T14:22:45.119Z,1.30
2023-04-25T14:25:21.818Z,1.08
2023-04-25T14:27:58.586Z,0.85
2023-04-25T14:30:41.176Z,0.80
2023-04-25T14:33:20.681Z,1.00
2023-04-25T14:35:59.808Z,1.15
2023-04-25T14:38:51.236Z,1.20
2023-04-25T14:41:30.550Z,1.20
2023-04-25T14:44:06.805Z,1.48
2023-04-25T14:46:42.932Z,2.05
2023-04-25T14:51:56.441Z,1.55
2023-04-25T14:54:33.309Z,1.67
2023-04-25T14:57:18.566Z,1.55
2023-04-25T14:59:57.846Z,1.65
2023-04-25T15:02:36.061Z,1.95
2023-04-25T15:05:24.290Z,1.50
2023-04-25T15:08:06.297Z,2.80
2023-04-25T15:10:44.709Z,1.25
2023-04-25T15:13:24.645Z,1.20
2023-04-25T15:16:03.721Z,0.88
2023-04-25T15:18:40.661Z,1.20
2023-04-25T15:21:23.976Z,1.55
2023-04-25T15:24:04.721Z,3.83
2023-04-25T15:26:40.665Z,2.00
2023-04-25T15:29:39.278Z,1.40
2023-04-25T15:32:21.206Z,2.05
2023-04-25T15:35:01.440Z,1.85
2023-04-25T15:37:39.910Z,1.92
2023-04-25T15:40:24.290Z,2.20
2023-04-25T15:43:05.880Z,2.10
2023-04-25T15:45:48.367Z,3.05
2023-04-25T15:48:31.825Z,2.70
2023-04-25T15:51:16.134Z,2.55
2023-04-25T15:53:52.585Z,2.65
2023-04-25T15:56:33.059Z,2.15
2023-04-25T15:59:10.398Z,2.05
2023-04-25T16:01:51.757Z,2.40
2023-04-25T16:04:36.324Z,2.45
2023-04-25T16:07:17.328Z,2.20
2023-04-25T16:09:56.204Z,2.75
2023-04-25T16:12:37.638Z,2.63
2023-04-25T16:15:17.188Z,2.90
2023-04-25T16:18:04.746Z,3.50
2023-04-25T16:23:24.820Z,2.83
2023-04-25T16:26:07.696Z,2.33
2023-04-25T16:28:47.897Z,2.67
2023-04-25T16:31:24.470Z,2.20
2023-04-25T16:34:05.922Z,2.10
2023-04-25T16:36:47.157Z,2.08
2023-04-25T16:39:24.286Z,1.70
2023-04-25T16:42:05.371Z,2.47
2023-04-25T16:44:49.014Z,2.55
2023-04-25T16:50:15.457Z,1.75
2023-04-25T16:52:52.453Z,0.82
2023-04-25T16:55:32.304Z,0.90
2023-04-25T16:58:09.977Z,1.20
2023-04-25T17:00:50.461Z,1.38
2023-04-25T17:03:28.656Z,1.50
2023-04-25T17:06:17.336Z,2.60
2023-04-25T17:08:56.210Z,1.98
2023-04-25T17:11:36.915Z,2.70
2023-04-25T17:14:17.588Z,2.45
2023-04-25T17:17:00.104Z,3.08
2023-04-25T17:19:39.413Z,2.40
2023-04-25T17:22:19.704Z,2.50
2023-04-25T17:24:58.831Z,3.38
2023-04-25T17:27:40.581Z,3.20
2023-04-25T17:30:18.014Z,4.50
2023-04-25T17:32:54.328Z,5.82
2023-04-25T17:35:36.189Z,3.90
2023-04-25T17:38:17.033Z,3.25
2023-04-25T17:40:57.361Z,3.20
2023-04-25T17:43:34.567Z,3.00
2023-04-25T17:46:11.622Z,3.28
2023-04-25T17:48:46.904Z,2.78
2023-04-25T17:51:22.715Z,3.47
2023-04-25T17:54:01.629Z,3.30
2023-04-25T17:56:40.103Z,2.90
2023-04-25T17:59:16.491Z,2.45
2023-04-25T18:01:58.838Z,3.13
2023-04-25T18:04:32.508Z,3.28
2023-04-25T18:07:09.477Z,3.17
2023-04-25T18:09:48.757Z,3.30
2023-04-25T18:12:24.232Z,2.95
2023-04-25T18:15:06.420Z,3.25
2023-04-25T18:17:41.165Z,4.17
2023-04-25T18:20:17.701Z,3.33
2023-04-25T18:22:52.691Z,3.17
2023-04-25T18:25:35.377Z,3.80
2023-04-25T18:28:11.218Z,4.18
2023-04-25T18:30:47.636Z,3.60
2023-04-25T18:33:22.655Z,3.70
2023-04-25T18:35:59.898Z,3.50
2023-04-25T18:38:36.325Z,3.92
2023-04-25T18:41:34.413Z,3.92
2023-04-25T18:44:10.970Z,3.97
2023-04-25T18:46:47.747Z,3.25
2023-04-25T18:49:23.187Z,4.00
2023-04-25T18:54:33.882Z,3.53
2023-04-25T18:57:19.088Z,4.10
2023-04-25T18:59:55.515Z,4.10
2023-04-25T19:02:30.957Z,3.45
2023-04-25T19:05:08.861Z,4.13
2023-04-25T19:07:45.760Z,4.30
2023-04-25T19:10:21.241Z,4.72
2023-04-25T19:13:00.628Z,3.70
2023-04-25T19:15:37.073Z,4.22
2023-04-25T19:18:13.177Z,3.53
2023-04-25T19:20:54.662Z,3.40
2023-04-25T19:23:31.652Z,4.32
2023-04-25T19:26:14.345Z,4.07
2023-04-25T19:28:53.004Z,4.10
2023-04-25T19:31:32.618Z,4.15
2023-04-25T19:34:12.480Z,3.85
2023-04-25T19:36:53.273Z,4.18
2023-04-25T19:39:35.040Z,3.95
2023-04-25T19:42:15.313Z,4.00
2023-04-25T19:45:03.929Z,3.80
2023-04-25T19:47:39.122Z,3.53
2023-04-25T19:50:18.723Z,4.18
2023-04-25T19:52:57.658Z,3.90
2023-04-25T19:55:38.604Z,4.35
2023-04-25T19:58:18.208Z,4.05
2023-04-25T20:00:58.881Z,3.63
2023-04-25T20:03:38.512Z,4.17
2023-04-25T20:06:18.156Z,3.53
2023-04-25T20:08:59.244Z,3.55
2023-04-25T20:11:38.079Z,5.25
2023-04-25T20:14:21.464Z,3.83
2023-04-25T20:17:03.179Z,3.72
2023-04-25T20:19:40.619Z,3.00
2023-04-25T20:22:16.494Z,3.58
2023-04-25T20:24:54.968Z,3.65
2023-04-25T20:27:33.698Z,5.10
2023-04-25T20:30:11.290Z,4.90
2023-04-25T20:32:57.154Z,4.25
2023-04-25T20:35:38.739Z,3.75
2023-04-25T20:38:29.611Z,4.15
2023-04-25T20:41:08.760Z,4.50
2023-04-25T20:43:43.013Z,3.80
2023-04-25T20:46:22.704Z,4.40
2023-04-25T20:49:02.660Z,3.83
2023-04-25T20:51:39.364Z,4.20
2023-04-25T20:54:19.070Z,4.33
2023-04-25T20:56:56.735Z,3.78
2023-04-25T20:59:37.116Z,4.28
2023-04-25T21:02:12.420Z,4.20
2023-04-25T21:04:54.066Z,3.95
2023-04-25T21:07:29.105Z,4.50
2023-04-25T21:10:08.678Z,3.67
2023-04-25T21:12:54.073Z,4.03
2023-04-25T21:15:30.827Z,5.00
2023-04-25T21:18:12.897Z,3.83
2023-04-25T21:20:57.527Z,4.10
2023-04-25T21:23:38.318Z,4.38
2023-04-25T21:26:27.026Z,4.07
2023-04-25T21:29:03.995Z,4.32
2023-04-25T21:31:42.964Z,4.25
2023-04-25T21:34:20.264Z,3.75
2023-04-25T21:37:01.167Z,4.13
2023-04-25T21:39:41.953Z,5.50
2023-04-25T21:42:17.228Z,3.70
2023-04-25T21:44:56.991Z,4.70
2023-04-25T21:47:34.976Z,3.55
2023-04-25T21:50:10.453Z,4.23
2023-04-25T21:52:53.696Z,5.30
2023-04-25T21:55:32.825Z,5.13
2023-04-25T21:58:13.405Z,5.72
2023-04-25T22:00:51.877Z,5.10
2023-04-25T22:03:35.378Z,4.20
2023-04-25T22:06:11.509Z,3.97
2023-04-25T22:08:52.829Z,4.03
2023-04-25T22:11:32.946Z,4.50
2023-04-25T22:14:24.668Z,4.25
2023-04-25T22:17:11.931Z,4.93
2023-04-25T22:19:55.087Z,3.92
2023-04-25T22:22:30.610Z,5.18
2023-04-25T22:25:13.851Z,4.65
2023-04-25T22:27:54.188Z,4.60
2023-04-25T22:30:31.346Z,4.53
2023-04-25T22:33:10.612Z,4.97
2023-04-25T22:35:49.241Z,4.85
2023-04-25T22:38:29.252Z,5.00
2023-04-25T22:41:16.888Z,4.15
2023-04-25T22:43:52.594Z,4.88
2023-04-25T22:46:47.179Z,4.80
2023-04-25T22:49:24.743Z,5.07
2023-04-25T22:52:05.945Z,4.28
2023-04-25T22:54:47.577Z,5.05
2023-04-25T22:57:29.978Z,4.22
2023-04-25T23:00:16.264Z,4.55
2023-04-25T23:02:52.205Z,5.07
2023-04-25T23:05:28.901Z,5.20
2023-04-25T23:08:08.343Z,4.47
2023-04-25T23:10:48.592Z,4.60
2023-04-25T23:13:30.116Z,4.38
2023-04-25T23:16:09.818Z,4.45
2023-04-25T23:18:47.718Z,3.83
2023-04-25T23:21:22.866Z,5.05
2023-04-25T23:23:57.685Z,3.90
2023-04-25T23:26:33.675Z,4.85
2023-04-25T23:29:11.499Z,5.22
2023-04-25T23:31:48.416Z,5.75
2023-04-25T23:34:28.604Z,5.07
2023-04-25T23:37:05.378Z,4.60
2023-04-25T23:39:42.248Z,4.85
2023-04-25T23:42:21.089Z,6.57
2023-04-25T23:45:04.249Z,5.25
2023-04-25T23:47:44.327Z,4.78
2023-04-25T23:50:21.716Z,5.35
2023-04-25T23:53:03.670Z,4.97
2023-04-25T23:55:41.310Z,4.90
2023-04-25T23:58:16.470Z,4.60
